Time;durP1;ratioP1;P1;durP2;ratioP2;P2;SDS_P1;SDS_P2;PMS_P1;PMS_P2;Temp;Humidity;BMP_temperature;BMP_pressure;BME280_temperature;BME280_humidity;BME280_pressure;Samples;Min_cycle;Max_cycle;Signal;HPM_P1;HPM_P2
2022/05/12 00:00:12;;;;;;;4.15;3.28;;;;;;;;;;4929911;28;20036;-69
2022/05/12 00:02:37;;;;;;;4.00;3.10;;;;;;;;;;4952350;28;20097;-70
2022/05/12 00:05:05;;;;;;;3.38;2.90;;;;;;;;;;4951878;28;20039;-69
2022/05/12 00:07:30;;;;;;;3.88;2.70;;;;;;;;;;4925767;28;20047;-69
2022/05/12 00:09:56;;;;;;;4.07;3.03;;;;;;;;;;4949673;28;20086;-67
2022/05/12 00:12:23;;;;;;;3.70;2.80;;;;;;;;;;4958607;28;20043;-69
2022/05/12 00:14:48;;;;;;;5.45;2.72;;;;;;;;;;4950831;28;20042;-69
2022/05/12 00:17:14;;;;;;;4.40;3.00;;;;;;;;;;4952000;28;20050;-69
2022/05/12 00:19:39;;;;;;;4.50;3.05;;;;;;;;;;4943943;28;20031;-68
2022/05/12 00:22:04;;;;;;;4.72;3.05;;;;;;;;;;4942859;28;20082;-69
2022/05/12 00:24:30;;;;;;;3.83;3.08;;;;;;;;;;4944102;28;20070;-69
2022/05/12 00:26:55;;;;;;;3.80;3.00;;;;;;;;;;4934395;28;20035;-68
2022/05/12 00:29:21;;;;;;;4.10;3.22;;;;;;;;;;4951882;28;20064;-69
2022/05/12 00:31:48;;;;;;;6.43;3.15;;;;;;;;;;4955482;28;20140;-71
2022/05/12 00:34:15;;;;;;;5.53;3.25;;;;;;;;;;4931820;28;20593;-68
2022/05/12 00:36:40;;;;;;;5.15;3.05;;;;;;;;;;4950533;28;20090;-69
2022/05/12 00:39:06;;;;;;;3.70;2.90;;;;;;;;;;4947138;28;20043;-68
2022/05/12 00:41:32;;;;;;;3.13;2.83;;;;;;;;;;4952710;28;20027;-68
2022/05/12 00:44:02;;;;;;;4.50;2.80;;;;;;;;;;4947268;28;20039;-68
2022/05/12 00:46:31;;;;;;;3.20;2.90;;;;;;;;;;4950316;28;20047;-67
2022/05/12 00:49:03;;;;;;;5.05;2.83;;;;;;;;;;4928206;28;20074;-68
2022/05/12 00:51:42;;;;;;;5.65;3.63;;;;;;;;;;4943109;28;20049;-68
2022/05/12 00:54:15;;;;;;;3.90;2.85;;;;;;;;;;4945742;28;20039;-68
2022/05/12 00:56:41;;;;;;;3.92;3.40;;;;;;;;;;4951460;28;20042;-68
2022/05/12 00:59:11;;;;;;;4.63;3.47;;;;;;;;;;4946878;28;20058;-67
2022/05/12 01:01:38;;;;;;;5.30;3.53;;;;;;;;;;4949945;28;20043;-68
2022/05/12 01:04:04;;;;;;;4.32;3.33;;;;;;;;;;4945947;28;20591;-68
2022/05/12 01:06:30;;;;;;;3.83;3.22;;;;;;;;;;4953403;28;20039;-67
2022/05/12 01:08:55;;;;;;;4.97;3.00;;;;;;;;;;4958783;28;20042;-68
2022/05/12 01:11:22;;;;;;;9.15;3.40;;;;;;;;;;4956400;28;20047;-68
2022/05/12 01:13:54;;;;;;;2.97;2.78;;;;;;;;;;4931731;28;20567;-67
2022/05/12 01:16:35;;;;;;;6.30;3.40;;;;;;;;;;4952841;28;20051;-69
2022/05/12 01:19:01;;;;;;;6.32;3.13;;;;;;;;;;4950699;28;20046;-67
2022/05/12 01:21:26;;;;;;;5.45;2.65;;;;;;;;;;4955868;28;20035;-69
2022/05/12 01:23:52;;;;;;;4.72;3.70;;;;;;;;;;4953647;28;20039;-68
2022/05/12 01:26:17;;;;;;;6.35;3.33;;;;;;;;;;4954160;28;20043;-68
2022/05/12 01:28:43;;;;;;;6.07;3.28;;;;;;;;;;4944029;28;20027;-69
2022/05/12 01:31:15;;;;;;;5.05;3.20;;;;;;;;;;4953277;28;20046;-69
2022/05/12 01:33:41;;;;;;;5.28;3.25;;;;;;;;;;4954462;28;20045;-68
2022/05/12 01:36:07;;;;;;;4.20;3.00;;;;;;;;;;4945083;28;20043;-68
2022/05/12 01:38:32;;;;;;;4.30;3.10;;;;;;;;;;4946368;28;20106;-68
2022/05/12 01:40:57;;;;;;;5.20;3.25;;;;;;;;;;4953447;28;20485;-69
2022/05/12 01:43:23;;;;;;;4.97;3.10;;;;;;;;;;4946630;28;20047;-68
2022/05/12 01:45:48;;;;;;;4.05;2.88;;;;;;;;;;4953854;28;20118;-68
2022/05/12 01:48:15;;;;;;;5.22;3.42;;;;;;;;;;4952199;28;20061;-68
2022/05/12 01:50:43;;;;;;;5.63;3.38;;;;;;;;;;4948503;28;20026;-67
2022/05/12 01:53:11;;;;;;;5.03;3.10;;;;;;;;;;4954550;28;20035;-68
2022/05/12 01:55:38;;;;;;;9.80;3.45;;;;;;;;;;4947638;28;20444;-68
2022/05/12 01:58:05;;;;;;;3.70;3.40;;;;;;;;;;4945222;28;20046;-68
2022/05/12 02:00:31;;;;;;;5.50;3.58;;;;;;;;;;4952826;28;20026;-68
2022/05/12 02:03:00;;;;;;;5.03;3.00;;;;;;;;;;4949365;28;20122;-67
2022/05/12 02:05:28;;;;;;;5.30;3.20;;;;;;;;;;4946877;28;20488;-68
2022/05/12 02:07:53;;;;;;;5.20;3.00;;;;;;;;;;4946674;28;20106;-68
2022/05/12 02:10:24;;;;;;;3.67;3.00;;;;;;;;;;4950580;28;20484;-68
2022/05/12 02:12:49;;;;;;;3.05;2.83;;;;;;;;;;4954157;28;20551;-66
2022/05/12 02:15:15;;;;;;;5.03;2.95;;;;;;;;;;4951139;28;20155;-67
2022/05/12 02:17:41;;;;;;;8.75;3.22;;;;;;;;;;4947736;28;20046;-69
2022/05/12 02:20:07;;;;;;;22.92;3.28;;;;;;;;;;4954343;28;20043;-68
2022/05/12 02:22:32;;;;;;;7.25;3.67;;;;;;;;;;4944771;28;20121;-68
2022/05/12 02:24:58;;;;;;;4.53;3.25;;;;;;;;;;4950345;28;20052;-68
2022/05/12 02:27:23;;;;;;;3.42;3.13;;;;;;;;;;4949108;28;20054;-68
2022/05/12 02:29:49;;;;;;;4.93;3.10;;;;;;;;;;4954329;28;20113;-68
2022/05/12 02:32:14;;;;;;;4.22;3.58;;;;;;;;;;4945293;28;20137;-68
2022/05/12 02:34:40;;;;;;;3.33;3.03;;;;;;;;;;4950187;28;20480;-69
2022/05/12 02:37:05;;;;;;;3.40;3.10;;;;;;;;;;4953864;28;20043;-69
2022/05/12 02:39:35;;;;;;;5.82;3.13;;;;;;;;;;4950059;28;20031;-67
2022/05/12 02:42:05;;;;;;;9.15;3.30;;;;;;;;;;4946057;28;20089;-68
2022/05/12 02:44:31;;;;;;;3.70;2.92;;;;;;;;;;4955577;28;20479;-68
2022/05/12 02:46:57;;;;;;;7.03;3.17;;;;;;;;;;4928094;28;20050;-68
2022/05/12 02:49:23;;;;;;;4.85;3.10;;;;;;;;;;4952289;28;20387;-68
2022/05/12 02:51:48;;;;;;;7.32;3.20;;;;;;;;;;4960831;28;20764;-68
2022/05/12 02:54:16;;;;;;;7.57;2.80;;;;;;;;;;4946002;28;20047;-68
2022/05/12 02:56:42;;;;;;;4.57;3.13;;;;;;;;;;4927557;28;20943;-68
2022/05/12 02:59:08;;;;;;;4.68;3.22;;;;;;;;;;4944011;28;20039;-67
2022/05/12 03:01:34;;;;;;;7.40;3.10;;;;;;;;;;4952052;28;20031;-68
2022/05/12 03:03:59;;;;;;;8.77;3.38;;;;;;;;;;4927589;28;20039;-68
2022/05/12 03:06:25;;;;;;;7.85;3.22;;;;;;;;;;4945443;28;20062;-68
2022/05/12 03:08:51;;;;;;;5.43;3.33;;;;;;;;;;4943253;28;20431;-68
2022/05/12 03:11:16;;;;;;;4.82;3.10;;;;;;;;;;4946588;28;20043;-68
2022/05/12 03:13:42;;;;;;;5.85;2.92;;;;;;;;;;4951083;28;20039;-69
2022/05/12 03:16:08;;;;;;;3.88;3.28;;;;;;;;;;4941332;28;20077;-69
2022/05/12 03:18:33;;;;;;;4.65;3.33;;;;;;;;;;4947272;28;20042;-67
2022/05/12 03:20:59;;;;;;;3.75;3.10;;;;;;;;;;4943043;28;20209;-69
2022/05/12 03:23:24;;;;;;;3.25;2.85;;;;;;;;;;4945654;28;20054;-69
2022/05/12 03:25:52;;;;;;;3.83;2.90;;;;;;;;;;4944913;28;20451;-68
2022/05/12 03:28:17;;;;;;;3.42;2.97;;;;;;;;;;4945789;28;20105;-69
2022/05/12 03:30:43;;;;;;;3.90;3.00;;;;;;;;;;4947332;28;20043;-69
2022/05/12 03:33:10;;;;;;;6.40;2.95;;;;;;;;;;4948170;28;20150;-69
2022/05/12 03:35:36;;;;;;;3.00;2.70;;;;;;;;;;4940818;28;20049;-68
2022/05/12 03:38:05;;;;;;;6.63;2.90;;;;;;;;;;4950569;28;20043;-68
2022/05/12 03:40:31;;;;;;;5.03;2.90;;;;;;;;;;4951080;28;20032;-69
2022/05/12 03:43:00;;;;;;;3.88;2.88;;;;;;;;;;4956791;28;20039;-68
2022/05/12 03:45:27;;;;;;;4.78;3.05;;;;;;;;;;4944914;28;20034;-67
2022/05/12 03:47:55;;;;;;;4.40;2.45;;;;;;;;;;4949485;28;20031;-69
2022/05/12 03:50:23;;;;;;;4.88;2.40;;;;;;;;;;4945709;28;20488;-69
2022/05/12 03:52:49;;;;;;;2.63;2.40;;;;;;;;;;4948541;28;20042;-68
2022/05/12 03:55:18;;;;;;;4.53;2.63;;;;;;;;;;4943488;28;20047;-67
2022/05/12 03:57:45;;;;;;;2.88;2.30;;;;;;;;;;4948886;28;20047;-68
2022/05/12 04:00:14;;;;;;;3.20;2.50;;;;;;;;;;4943281;28;20115;-69
2022/05/12 04:02:40;;;;;;;4.20;2.55;;;;;;;;;;4947858;28;20062;-68
2022/05/12 04:05:07;;;;;;;5.75;2.90;;;;;;;;;;4941282;28;20078;-68
2022/05/12 04:07:33;;;;;;;3.10;2.30;;;;;;;;;;4945108;28;20118;-69
2022/05/12 04:10:02;;;;;;;3.35;2.78;;;;;;;;;;4949233;28;20698;-69
2022/05/12 04:12:27;;;;;;;3.08;2.58;;;;;;;;;;4953727;28;20400;-68
2022/05/12 04:14:53;;;;;;;4.20;2.30;;;;;;;;;;4942984;28;20479;-66
2022/05/12 04:17:19;;;;;;;4.78;2.25;;;;;;;;;;4951287;28;20426;-69
2022/05/12 04:19:45;;;;;;;6.53;2.35;;;;;;;;;;4947655;28;20043;-69
2022/05/12 04:22:13;;;;;;;4.97;2.50;;;;;;;;;;4947357;28;20074;-70
2022/05/12 04:24:38;;;;;;;6.47;2.60;;;;;;;;;;4942670;28;20535;-68
2022/05/12 04:27:04;;;;;;;5.68;2.78;;;;;;;;;;4946512;28;20057;-69
2022/05/12 04:29:30;;;;;;;3.38;2.20;;;;;;;;;;4941748;28;20039;-69
2022/05/12 04:31:55;;;;;;;2.75;1.90;;;;;;;;;;4950246;28;20038;-69
2022/05/12 04:37:05;;;;;;;4.60;2.40;;;;;;;;;;4942539;28;20058;-69
2022/05/12 04:39:31;;;;;;;4.00;2.25;;;;;;;;;;4949560;28;20039;-68
2022/05/12 04:41:57;;;;;;;2.78;2.10;;;;;;;;;;4946302;28;20066;-69
2022/05/12 04:44:23;;;;;;;4.82;2.30;;;;;;;;;;4946083;28;20753;-69
2022/05/12 04:46:48;;;;;;;7.10;2.78;;;;;;;;;;4950432;28;20411;-69
2022/05/12 04:49:13;;;;;;;8.73;3.10;;;;;;;;;;4951123;28;20543;-70
2022/05/12 04:51:40;;;;;;;3.95;2.20;;;;;;;;;;4954250;28;20047;-70
2022/05/12 04:54:12;;;;;;;8.18;2.40;;;;;;;;;;4934506;28;20035;-70
2022/05/12 04:56:39;;;;;;;7.22;3.22;;;;;;;;;;4954675;28;20051;-70
2022/05/12 04:59:06;;;;;;;3.58;2.58;;;;;;;;;;4950201;28;20492;-69
2022/05/12 05:01:32;;;;;;;4.03;2.75;;;;;;;;;;4952569;28;20035;-70
2022/05/12 05:04:00;;;;;;;9.60;2.60;;;;;;;;;;4953175;28;20054;-70
2022/05/12 05:06:29;;;;;;;7.85;2.35;;;;;;;;;;4952358;28;20288;-69
2022/05/12 05:08:54;;;;;;;2.83;2.60;;;;;;;;;;4951624;28;20053;-70
2022/05/12 05:11:20;;;;;;;6.32;2.40;;;;;;;;;;4933687;28;20031;-69
2022/05/12 05:13:46;;;;;;;6.82;2.67;;;;;;;;;;4954593;28;20369;-68
2022/05/12 05:16:11;;;;;;;5.43;2.30;;;;;;;;;;4951701;28;20042;-68
2022/05/12 05:18:38;;;;;;;3.63;2.20;;;;;;;;;;4949723;28;20066;-68
2022/05/12 05:21:04;;;;;;;6.90;1.88;;;;;;;;;;4949884;28;20087;-69
2022/05/12 05:23:30;;;;;;;5.78;2.20;;;;;;;;;;4946391;28;20038;-68
2022/05/12 05:25:56;;;;;;;6.80;2.35;;;;;;;;;;4945421;28;20035;-68
2022/05/12 05:28:21;;;;;;;5.03;2.30;;;;;;;;;;4948743;28;20039;-68
2022/05/12 05:30:47;;;;;;;5.03;2.45;;;;;;;;;;4947448;28;20035;-68
2022/05/12 05:33:13;;;;;;;2.33;2.10;;;;;;;;;;4956055;28;20049;-68
2022/05/12 05:35:38;;;;;;;2.53;2.10;;;;;;;;;;4948748;28;20054;-68
2022/05/12 05:38:04;;;;;;;3.63;2.20;;;;;;;;;;4948438;28;20039;-68
2022/05/12 05:40:29;;;;;;;3.53;2.30;;;;;;;;;;4949903;28;20031;-68
2022/05/12 05:42:56;;;;;;;4.28;2.20;;;;;;;;;;4934079;28;20050;-68
2022/05/12 05:45:22;;;;;;;6.00;2.38;;;;;;;;;;4938143;28;20039;-68
2022/05/12 05:47:51;;;;;;;6.47;2.50;;;;;;;;;;4945167;28;20039;-71
2022/05/12 05:50:21;;;;;;;3.47;2.50;;;;;;;;;;4950757;28;20109;-71
2022/05/12 05:55:31;;;;;;;3.50;2.25;;;;;;;;;;4953166;28;20042;-71
2022/05/12 05:58:00;;;;;;;4.45;2.40;;;;;;;;;;4955215;28;20837;-71
2022/05/12 06:00:26;;;;;;;3.17;2.42;;;;;;;;;;4954289;28;20090;-71
2022/05/12 06:02:52;;;;;;;6.78;2.08;;;;;;;;;;4953114;28;20031;-70
2022/05/12 06:05:18;;;;;;;6.90;2.47;;;;;;;;;;4954964;28;20030;-71
2022/05/12 06:07:44;;;;;;;5.35;2.35;;;;;;;;;;4949828;28;20571;-70
2022/05/12 06:10:10;;;;;;;9.18;2.03;;;;;;;;;;4952627;28;20480;-70
2022/05/12 06:12:37;;;;;;;6.10;2.10;;;;;;;;;;4950619;28;20507;-70
2022/05/12 06:15:03;;;;;;;11.88;2.03;;;;;;;;;;4954046;28;20039;-70
2022/05/12 06:17:28;;;;;;;10.68;2.20;;;;;;;;;;4954760;28;20046;-70
2022/05/12 06:19:54;;;;;;;9.20;2.35;;;;;;;;;;4952380;28;20566;-70
2022/05/12 06:22:20;;;;;;;3.28;1.92;;;;;;;;;;4953213;28;20046;-70
2022/05/12 06:24:47;;;;;;;8.30;2.33;;;;;;;;;;4954326;28;20122;-71
2022/05/12 06:27:14;;;;;;;3.67;2.30;;;;;;;;;;4954138;28;20090;-68
2022/05/12 06:29:41;;;;;;;4.10;2.28;;;;;;;;;;4949681;28;20118;-68
2022/05/12 06:32:07;;;;;;;5.28;1.80;;;;;;;;;;4954601;28;20039;-70
2022/05/12 06:34:34;;;;;;;4.80;2.15;;;;;;;;;;4950988;28;20074;-70
2022/05/12 06:36:59;;;;;;;5.05;2.30;;;;;;;;;;4951763;28;20043;-70
2022/05/12 06:39:25;;;;;;;2.88;2.40;;;;;;;;;;4953371;28;20039;-69
2022/05/12 06:41:51;;;;;;;8.40;2.50;;;;;;;;;;4950947;28;20075;-68
2022/05/12 06:44:17;;;;;;;5.93;2.20;;;;;;;;;;4950583;28;20240;-68
2022/05/12 06:46:43;;;;;;;10.80;2.70;;;;;;;;;;4948906;28;20082;-68
2022/05/12 06:49:08;;;;;;;3.72;2.42;;;;;;;;;;4947746;28;20093;-68
2022/05/12 06:51:34;;;;;;;9.93;3.03;;;;;;;;;;4943626;28;20035;-68
2022/05/12 06:54:00;;;;;;;6.22;2.40;;;;;;;;;;4946734;28;20151;-67
2022/05/12 06:56:25;;;;;;;3.35;2.13;;;;;;;;;;4951262;28;20552;-69
2022/05/12 06:58:51;;;;;;;4.82;2.17;;;;;;;;;;4933798;28;20863;-69
2022/05/12 07:01:17;;;;;;;3.35;2.35;;;;;;;;;;4951223;28;20047;-68
2022/05/12 07:03:42;;;;;;;6.82;2.10;;;;;;;;;;4952418;28;20135;-69
2022/05/12 07:06:07;;;;;;;5.57;2.30;;;;;;;;;;4944175;28;20098;-68
2022/05/12 07:08:41;;;;;;;9.18;2.20;;;;;;;;;;4948958;28;20039;-68
2022/05/12 07:11:07;;;;;;;5.20;2.33;;;;;;;;;;4935275;28;20050;-69
2022/05/12 07:13:33;;;;;;;5.22;2.38;;;;;;;;;;4953690;28;20030;-68
2022/05/12 07:16:00;;;;;;;5.43;2.20;;;;;;;;;;4949199;28;20065;-68
2022/05/12 07:18:25;;;;;;;7.80;2.03;;;;;;;;;;4951028;28;20081;-68
2022/05/12 07:29:18;;;;;;;4.75;2.03;;;;;;;;;;4935253;28;20055;-69
2022/05/12 07:31:44;;;;;;;11.93;2.35;;;;;;;;;;4944056;28;20511;-68
2022/05/12 07:34:12;;;;;;;7.43;1.98;;;;;;;;;;4950111;28;20078;-68
2022/05/12 07:36:41;;;;;;;4.38;1.83;;;;;;;;;;4950602;28;20471;-69
2022/05/12 07:39:08;;;;;;;5.60;2.00;;;;;;;;;;4953705;28;20463;-68
2022/05/12 07:41:34;;;;;;;5.85;2.10;;;;;;;;;;4954450;28;20044;-68
2022/05/12 07:44:00;;;;;;;3.85;2.10;;;;;;;;;;4938659;28;20039;-68
2022/05/12 07:46:28;;;;;;;6.07;2.22;;;;;;;;;;4950239;28;20063;-70
2022/05/12 07:48:54;;;;;;;6.03;2.13;;;;;;;;;;4954517;28;20052;-70
2022/05/12 07:51:21;;;;;;;5.65;2.22;;;;;;;;;;4954731;28;20031;-67
2022/05/12 07:53:48;;;;;;;12.38;2.53;;;;;;;;;;4953779;28;20423;-69
2022/05/12 07:56:15;;;;;;;6.35;2.00;;;;;;;;;;4931729;28;20423;-69
2022/05/12 07:58:41;;;;;;;5.55;2.00;;;;;;;;;;4953282;28;20050;-69
2022/05/12 08:01:06;;;;;;;6.22;2.20;;;;;;;;;;4950693;28;20611;-68
2022/05/12 08:03:32;;;;;;;4.53;1.90;;;;;;;;;;4953514;28;20078;-69
2022/05/12 08:05:59;;;;;;;6.90;2.65;;;;;;;;;;4950592;28;20034;-71
2022/05/12 08:08:28;;;;;;;2.15;1.60;;;;;;;;;;4948582;28;20039;-73
2022/05/12 08:10:54;;;;;;;5.28;1.90;;;;;;;;;;4951571;28;20039;-71
2022/05/12 08:13:19;;;;;;;9.45;2.22;;;;;;;;;;4947501;28;20057;-71
2022/05/12 08:15:47;;;;;;;5.68;1.85;;;;;;;;;;4958469;28;20403;-70
2022/05/12 08:18:16;;;;;;;6.13;1.83;;;;;;;;;;4948498;28;20043;-71
2022/05/12 08:20:44;;;;;;;6.03;1.90;;;;;;;;;;4964617;28;20031;-70
2022/05/12 08:23:10;;;;;;;3.45;2.10;;;;;;;;;;4949736;28;20043;-70
2022/05/12 08:25:35;;;;;;;6.75;2.03;;;;;;;;;;4953742;28;20078;-71
2022/05/12 08:28:01;;;;;;;7.88;1.98;;;;;;;;;;4951371;28;20050;-69
2022/05/12 08:30:26;;;;;;;9.32;1.92;;;;;;;;;;4956122;28;20034;-71
2022/05/12 08:32:52;;;;;;;4.05;1.98;;;;;;;;;;4951173;28;20119;-70
2022/05/12 08:35:17;;;;;;;7.15;2.05;;;;;;;;;;4950547;28;20046;-71
2022/05/12 08:37:43;;;;;;;5.53;2.10;;;;;;;;;;4954047;28;20035;-72
2022/05/12 08:40:19;;;;;;;4.97;2.03;;;;;;;;;;4952710;28;20039;-69
2022/05/12 08:42:46;;;;;;;6.07;2.10;;;;;;;;;;4956298;28;20038;-71
2022/05/12 08:45:16;;;;;;;8.75;2.38;;;;;;;;;;4947150;28;20492;-72
2022/05/12 08:47:44;;;;;;;8.82;2.42;;;;;;;;;;4959634;28;20039;-71
2022/05/12 08:50:18;;;;;;;6.68;2.25;;;;;;;;;;4953051;28;20066;-68
2022/05/12 08:52:50;;;;;;;11.13;2.25;;;;;;;;;;4935569;28;20142;-68
2022/05/12 08:55:16;;;;;;;5.28;1.80;;;;;;;;;;4953676;28;20097;-69
2022/05/12 08:58:09;;;;;;;3.47;1.85;;;;;;;;;;4957237;28;20042;-69
2022/05/12 09:00:49;;;;;;;8.02;2.42;;;;;;;;;;4953880;28;20129;-68
2022/05/12 09:03:28;;;;;;;4.03;2.17;;;;;;;;;;4954586;28;20063;-68
2022/05/12 09:06:01;;;;;;;3.72;2.22;;;;;;;;;;4958237;28;20039;-69
2022/05/12 09:08:37;;;;;;;3.88;1.75;;;;;;;;;;4951086;28;20125;-69
2022/05/12 09:11:14;;;;;;;9.98;2.00;;;;;;;;;;4954079;28;20031;-70
2022/05/12 09:13:48;;;;;;;6.05;2.30;;;;;;;;;;4954723;28;20908;-68
2022/05/12 09:16:14;;;;;;;8.73;2.38;;;;;;;;;;4956878;28;20043;-68
2022/05/12 09:18:41;;;;;;;6.22;2.65;;;;;;;;;;4958173;28;20035;-69
2022/05/12 09:21:15;;;;;;;11.30;2.30;;;;;;;;;;4955521;28;20039;-67
2022/05/12 09:23:41;;;;;;;9.20;2.50;;;;;;;;;;4956423;28;20081;-69
2022/05/12 09:26:45;;;;;;;4.15;2.40;;;;;;;;;;4923653;28;20071;-69
2022/05/12 09:29:27;;;;;;;3.05;2.08;;;;;;;;;;4953010;28;20097;-69
2022/05/12 09:32:02;;;;;;;4.05;2.20;;;;;;;;;;4954608;28;20047;-68
2022/05/12 09:34:37;;;;;;;11.93;2.38;;;;;;;;;;4951277;28;20039;-69
2022/05/12 09:37:30;;;;;;;5.82;2.20;;;;;;;;;;4955219;28;20043;-69
2022/05/12 09:40:14;;;;;;;2.78;2.10;;;;;;;;;;4943013;28;20208;-68
2022/05/12 09:42:45;;;;;;;6.32;2.38;;;;;;;;;;4949060;28;20081;-67
2022/05/12 09:45:28;;;;;;;7.65;2.55;;;;;;;;;;4950589;28;20054;-68
2022/05/12 09:48:12;;;;;;;8.07;2.28;;;;;;;;;;4955965;28;20042;-69
2022/05/12 09:50:37;;;;;;;8.20;2.60;;;;;;;;;;4953159;28;20027;-69
2022/05/12 09:53:06;;;;;;;3.45;2.20;;;;;;;;;;4934416;28;20050;-68
2022/05/12 09:55:32;;;;;;;15.10;2.65;;;;;;;;;;4952925;28;20031;-71
2022/05/12 09:58:14;;;;;;;7.18;2.13;;;;;;;;;;4953934;28;20380;-69
2022/05/12 10:00:41;;;;;;;3.13;2.20;;;;;;;;;;4953197;28;20039;-70
2022/05/12 10:09:04;;;;;;;8.52;2.58;;;;;;;;;;4946330;28;20190;-69
2022/05/12 10:11:33;;;;;;;6.32;2.05;;;;;;;;;;4951369;28;20031;-69
2022/05/12 10:14:01;;;;;;;10.73;2.35;;;;;;;;;;4946062;28;20081;-69
2022/05/12 10:16:30;;;;;;;5.35;2.15;;;;;;;;;;4954268;28;20034;-68
2022/05/12 10:19:02;;;;;;;5.60;2.42;;;;;;;;;;4944337;28;20047;-70
2022/05/12 10:21:37;;;;;;;6.57;2.38;;;;;;;;;;4953052;28;20041;-69
2022/05/12 10:24:18;;;;;;;6.72;2.58;;;;;;;;;;4957315;28;20130;-70
2022/05/12 10:27:04;;;;;;;3.23;2.20;;;;;;;;;;4951355;28;20045;-69
2022/05/12 10:29:59;;;;;;;9.40;2.28;;;;;;;;;;4952104;28;20039;-70
2022/05/12 10:32:33;;;;;;;9.40;2.05;;;;;;;;;;4952437;28;20031;-68
2022/05/12 10:35:28;;;;;;;5.07;2.38;;;;;;;;;;4955215;28;20051;-67
2022/05/12 10:38:22;;;;;;;3.10;2.20;;;;;;;;;;4919246;28;20085;-69
2022/05/12 10:40:57;;;;;;;9.13;2.10;;;;;;;;;;4946528;28;20510;-69
2022/05/12 10:43:23;;;;;;;4.30;2.00;;;;;;;;;;4956543;28;20061;-68
2022/05/12 10:46:01;;;;;;;9.13;2.10;;;;;;;;;;4952625;28;20133;-69
2022/05/12 10:48:58;;;;;;;4.80;2.30;;;;;;;;;;4946728;28;20129;-68
2022/05/12 10:51:45;;;;;;;4.68;2.17;;;;;;;;;;4948863;28;20126;-68
2022/05/12 10:54:36;;;;;;;5.40;2.20;;;;;;;;;;4950363;28;20089;-68
2022/05/12 10:57:19;;;;;;;7.43;2.33;;;;;;;;;;4957339;28;20516;-68
2022/05/12 11:00:08;;;;;;;5.55;2.00;;;;;;;;;;4950590;28;20465;-68
2022/05/12 11:02:43;;;;;;;5.53;2.15;;;;;;;;;;4946625;28;20412;-68
2022/05/12 11:05:32;;;;;;;12.13;2.22;;;;;;;;;;4953095;28;20039;-68
2022/05/12 11:08:06;;;;;;;6.28;2.30;;;;;;;;;;4949413;28;20047;-69
2022/05/12 11:10:36;;;;;;;4.00;2.33;;;;;;;;;;4951892;28;20027;-69
2022/05/12 11:13:10;;;;;;;4.20;2.17;;;;;;;;;;4945231;28;20094;-70
2022/05/12 11:15:45;;;;;;;6.65;2.10;;;;;;;;;;4937023;28;20051;-67
2022/05/12 11:18:20;;;;;;;7.85;1.90;;;;;;;;;;4950282;28;20043;-70
2022/05/12 11:20:55;;;;;;;3.17;1.85;;;;;;;;;;4947185;28;20041;-68
2022/05/12 11:23:26;;;;;;;7.68;2.10;;;;;;;;;;4949488;28;20105;-69
2022/05/12 11:25:52;;;;;;;4.32;1.90;;;;;;;;;;4930967;28;21102;-68
2022/05/12 11:31:42;;;;;;;3.70;1.90;;;;;;;;;;4952871;28;20073;-69
2022/05/12 11:34:11;;;;;;;5.07;2.30;;;;;;;;;;4950055;28;20069;-72
2022/05/12 11:36:46;;;;;;;5.43;2.13;;;;;;;;;;4955635;28;20047;-71
2022/05/12 11:39:51;;;;;;;8.55;2.00;;;;;;;;;;4951717;28;20058;-73
2022/05/12 11:42:21;;;;;;;5.60;2.10;;;;;;;;;;4948320;28;20105;-71
2022/05/12 11:45:03;;;;;;;3.78;2.00;;;;;;;;;;4925123;28;20090;-70
2022/05/12 11:47:44;;;;;;;3.78;2.25;;;;;;;;;;4945496;28;20523;-71
2022/05/12 11:50:42;;;;;;;3.15;1.90;;;;;;;;;;4959123;28;20499;-73
2022/05/12 11:53:21;;;;;;;3.50;1.75;;;;;;;;;;4897965;28;20143;-68
2022/05/12 11:56:01;;;;;;;3.13;2.10;;;;;;;;;;4951422;28;20102;-69
2022/05/12 11:58:30;;;;;;;3.75;2.10;;;;;;;;;;4943592;28;20162;-70
2022/05/12 12:00:57;;;;;;;10.82;2.15;;;;;;;;;;4947109;28;20042;-72
2022/05/12 12:03:23;;;;;;;4.70;1.92;;;;;;;;;;4945321;28;20053;-69
2022/05/12 12:05:48;;;;;;;4.93;2.00;;;;;;;;;;4940153;28;20372;-71
2022/05/12 12:08:40;;;;;;;6.50;2.00;;;;;;;;;;4950859;28;20062;-71
2022/05/12 12:11:27;;;;;;;5.75;2.00;;;;;;;;;;4936693;28;20047;-71
2022/05/12 12:13:56;;;;;;;5.28;2.47;;;;;;;;;;4947601;28;20075;-71
2022/05/12 12:17:02;;;;;;;6.88;2.17;;;;;;;;;;4937921;28;20034;-69
2022/05/12 12:19:49;;;;;;;4.50;2.20;;;;;;;;;;4949302;28;20030;-68
2022/05/12 12:22:25;;;;;;;7.15;2.05;;;;;;;;;;4946639;28;20043;-69
2022/05/12 12:25:00;;;;;;;5.78;2.10;;;;;;;;;;4958426;28;20062;-69
2022/05/12 12:27:40;;;;;;;8.35;2.40;;;;;;;;;;4943599;28;20043;-69
2022/05/12 12:30:28;;;;;;;2.60;2.20;;;;;;;;;;4950151;28;20043;-68
2022/05/12 12:33:27;;;;;;;5.85;2.38;;;;;;;;;;4955743;28;20412;-68
2022/05/12 12:36:05;;;;;;;7.32;2.20;;;;;;;;;;4914528;28;20039;-68
2022/05/12 12:38:44;;;;;;;6.93;2.22;;;;;;;;;;4941856;28;20027;-68
2022/05/12 12:41:11;;;;;;;4.90;1.90;;;;;;;;;;4946445;28;20047;-67
2022/05/12 12:43:40;;;;;;;6.40;2.25;;;;;;;;;;4955057;28;20041;-68
2022/05/12 12:46:16;;;;;;;7.68;2.28;;;;;;;;;;4950617;28;20496;-68
2022/05/12 12:49:20;;;;;;;3.53;1.90;;;;;;;;;;4949495;28;20031;-67
2022/05/12 12:51:54;;;;;;;7.50;2.15;;;;;;;;;;4950549;28;20086;-69
2022/05/12 12:57:18;;;;;;;2.83;2.00;;;;;;;;;;4960494;28;20085;-69
2022/05/12 12:59:51;;;;;;;2.45;1.90;;;;;;;;;;4945637;28;20035;-67
2022/05/12 13:02:40;;;;;;;5.90;2.30;;;;;;;;;;4955027;28;20542;-69
2022/05/12 13:05:13;;;;;;;5.43;2.10;;;;;;;;;;4952103;28;20058;-69
2022/05/12 13:07:41;;;;;;;5.35;2.33;;;;;;;;;;4955117;28;20069;-71
2022/05/12 13:10:16;;;;;;;2.88;1.65;;;;;;;;;;4950664;28;20039;-71
2022/05/12 13:12:51;;;;;;;4.28;2.20;;;;;;;;;;4945914;28;20058;-71
2022/05/12 13:15:19;;;;;;;4.13;2.28;;;;;;;;;;4951306;28;20452;-71
2022/05/12 13:17:50;;;;;;;3.92;2.03;;;;;;;;;;4953642;28;20038;-71
2022/05/12 13:20:21;;;;;;;5.93;2.25;;;;;;;;;;4931573;28;20058;-69
2022/05/12 13:22:49;;;;;;;2.88;1.90;;;;;;;;;;4948817;28;20551;-68
2022/05/12 13:25:20;;;;;;;6.50;2.03;;;;;;;;;;4944558;28;20045;-70
2022/05/12 13:27:47;;;;;;;2.65;2.10;;;;;;;;;;4942526;28;20264;-71
2022/05/12 13:30:16;;;;;;;5.57;2.13;;;;;;;;;;4949491;28;20035;-73
2022/05/12 13:32:50;;;;;;;2.90;1.80;;;;;;;;;;4956797;28;20475;-71
2022/05/12 13:35:18;;;;;;;1.85;1.60;;;;;;;;;;4948105;28;20058;-72
2022/05/12 13:38:06;;;;;;;6.80;1.92;;;;;;;;;;4955095;28;20053;-70
2022/05/12 13:40:36;;;;;;;2.38;2.00;;;;;;;;;;4953843;28;20054;-71
2022/05/12 13:43:02;;;;;;;6.85;1.92;;;;;;;;;;4951737;28;20046;-71
2022/05/12 13:45:31;;;;;;;6.38;2.40;;;;;;;;;;4950841;28;20027;-69
2022/05/12 13:47:58;;;;;;;5.38;2.25;;;;;;;;;;4944171;28;20059;-70
2022/05/12 13:50:57;;;;;;;3.20;1.80;;;;;;;;;;4956556;28;20030;-70
2022/05/12 13:53:46;;;;;;;6.47;1.80;;;;;;;;;;4904073;28;20142;-70
2022/05/12 13:56:24;;;;;;;4.38;2.28;;;;;;;;;;4943614;28;20039;-70
2022/05/12 13:58:52;;;;;;;2.17;1.88;;;;;;;;;;4949024;28;20392;-70
2022/05/12 14:01:30;;;;;;;6.45;2.00;;;;;;;;;;4948713;28;20086;-69
2022/05/12 14:04:04;;;;;;;4.15;1.83;;;;;;;;;;4952656;28;20085;-69
2022/05/12 14:06:31;;;;;;;3.33;2.17;;;;;;;;;;4944653;28;20137;-71
2022/05/12 14:09:11;;;;;;;4.60;1.90;;;;;;;;;;4943992;28;20070;-71
2022/05/12 14:11:37;;;;;;;3.67;2.20;;;;;;;;;;4942455;28;20062;-70
2022/05/12 14:19:33;;;;;;;4.22;1.70;;;;;;;;;;4948607;28;20109;-70
2022/05/12 14:22:03;;;;;;;6.20;2.13;;;;;;;;;;4946946;28;20494;-70
2022/05/12 14:24:31;;;;;;;3.80;2.15;;;;;;;;;;4958601;28;20039;-71
2022/05/12 14:26:57;;;;;;;4.15;1.85;;;;;;;;;;4943875;28;20043;-70
2022/05/12 14:29:23;;;;;;;5.32;2.20;;;;;;;;;;4944184;28;20047;-72
2022/05/12 14:31:50;;;;;;;2.75;1.83;;;;;;;;;;4947310;28;20080;-70
2022/05/12 14:34:19;;;;;;;4.20;1.92;;;;;;;;;;4947103;28;20065;-68
2022/05/12 14:36:45;;;;;;;7.97;2.10;;;;;;;;;;4944004;28;20039;-68
2022/05/12 14:39:11;;;;;;;7.47;2.13;;;;;;;;;;4943572;28;20685;-69
2022/05/12 14:41:36;;;;;;;4.90;2.00;;;;;;;;;;4950832;28;20150;-68
2022/05/12 14:44:02;;;;;;;3.83;1.65;;;;;;;;;;4948069;28;20039;-70
2022/05/12 14:46:34;;;;;;;3.05;2.03;;;;;;;;;;4950840;28;20073;-71
2022/05/12 14:49:00;;;;;;;3.90;1.92;;;;;;;;;;4947514;28;20065;-71
2022/05/12 14:51:26;;;;;;;3.20;2.20;;;;;;;;;;4945210;28;20035;-71
2022/05/12 14:53:51;;;;;;;1.88;1.60;;;;;;;;;;4931080;28;20046;-70
2022/05/12 14:56:17;;;;;;;7.63;2.38;;;;;;;;;;4954066;28;20101;-68
2022/05/12 14:58:42;;;;;;;5.63;2.17;;;;;;;;;;4951291;28;20043;-68
2022/05/12 15:01:08;;;;;;;22.00;2.38;;;;;;;;;;4951395;28;20042;-70
2022/05/12 15:03:35;;;;;;;9.40;2.00;;;;;;;;;;4948133;28;20039;-69
2022/05/12 15:06:02;;;;;;;6.53;2.13;;;;;;;;;;4942442;28;20066;-70
2022/05/12 15:08:28;;;;;;;6.03;2.35;;;;;;;;;;4942025;28;20047;-70
2022/05/12 15:10:54;;;;;;;3.28;2.30;;;;;;;;;;4943362;28;20034;-70
2022/05/12 15:13:20;;;;;;;6.03;2.30;;;;;;;;;;4955596;28;20101;-71
2022/05/12 15:15:45;;;;;;;4.60;2.40;;;;;;;;;;4945257;28;20054;-70
2022/05/12 15:18:11;;;;;;;11.75;2.42;;;;;;;;;;4928638;28;20070;-70
2022/05/12 15:20:37;;;;;;;10.35;2.42;;;;;;;;;;4949363;28;20551;-68
2022/05/12 15:23:03;;;;;;;3.72;2.35;;;;;;;;;;4954187;28;20074;-69
2022/05/12 15:25:29;;;;;;;2.88;2.15;;;;;;;;;;4943090;28;20039;-70
2022/05/12 15:27:55;;;;;;;4.15;2.00;;;;;;;;;;4950514;28;20054;-69
2022/05/12 15:30:24;;;;;;;7.57;2.10;;;;;;;;;;4949942;28;20077;-70